createdAt,value
2023-09-07T00:03:09.966Z,4.60
2023-09-07T00:07:11.951Z,5.22
2023-09-07T00:11:13.840Z,4.93
2023-09-07T00:15:15.716Z,5.07
2023-09-07T00:19:17.566Z,5.30
2023-09-07T00:23:21.129Z,5.30
2023-09-07T00:27:23.094Z,5.53
2023-09-07T00:31:25.180Z,5.50
2023-09-07T00:35:27.319Z,5.03
2023-09-07T00:39:29.340Z,5.55
2023-09-07T00:43:31.286Z,5.32
2023-09-07T00:47:36.435Z,4.78
2023-09-07T00:51:38.517Z,5.78
2023-09-07T00:55:40.714Z,4.97
2023-09-07T00:59:42.633Z,5.10
2023-09-07T01:03:45.510Z,4.80
2023-09-07T01:07:54.501Z,5.68
2023-09-07T01:11:56.599Z,5.50
2023-09-07T01:15:58.665Z,5.45
2023-09-07T01:20:12.369Z,5.25
2023-09-07T01:24:16.545Z,5.10
2023-09-07T01:28:18.923Z,5.13
2023-09-07T01:32:20.858Z,5.63
2023-09-07T01:36:22.736Z,5.13
2023-09-07T01:40:24.661Z,5.50
2023-09-07T01:44:28.164Z,5.57
2023-09-07T01:48:30.603Z,5.68
2023-09-07T01:52:32.728Z,5.88
2023-09-07T01:56:34.699Z,6.28
2023-09-07T02:00:42.589Z,6.00
2023-09-07T02:04:47.342Z,5.35
2023-09-07T02:08:49.851Z,5.68
2023-09-07T02:12:51.831Z,5.50
2023-09-07T02:16:53.847Z,5.72
2023-09-07T02:20:55.894Z,6.65
2023-09-07T02:24:57.737Z,5.40
2023-09-07T02:28:59.647Z,5.55
2023-09-07T02:33:01.555Z,6.07
2023-09-07T02:37:04.720Z,6.40
2023-09-07T02:41:07.177Z,5.53
2023-09-07T02:45:12.335Z,5.90
2023-09-07T02:49:14.697Z,6.35
2023-09-07T02:53:16.796Z,5.57
2023-09-07T02:57:18.734Z,6.78
2023-09-07T03:01:22.859Z,6.22
2023-09-07T03:05:29.242Z,5.95
2023-09-07T03:09:31.533Z,6.93
2023-09-07T03:13:34.075Z,6.03
2023-09-07T03:17:36.053Z,6.78
2023-09-07T03:21:38.663Z,6.97
2023-09-07T03:25:40.884Z,6.28
2023-09-07T03:29:43.064Z,6.50
2023-09-07T03:33:45.229Z,7.05
2023-09-07T03:37:48.643Z,7.63
2023-09-07T03:41:50.532Z,6.65
2023-09-07T03:45:52.777Z,7.30
2023-09-07T03:49:54.847Z,6.50
2023-09-07T03:53:56.794Z,7.30
2023-09-07T03:57:58.743Z,7.30
2023-09-07T04:02:00.925Z,7.30
2023-09-07T04:06:03.074Z,7.03
2023-09-07T04:10:06.497Z,6.35
2023-09-07T04:14:08.368Z,7.03
2023-09-07T04:18:10.461Z,7.63
2023-09-07T04:22:12.878Z,6.43
2023-09-07T04:26:14.883Z,7.15
2023-09-07T04:30:17.174Z,7.07
2023-09-07T04:34:19.259Z,6.97
2023-09-07T04:38:21.200Z,7.05
2023-09-07T04:42:23.299Z,7.82
2023-09-07T04:46:25.271Z,7.85
2023-09-07T04:50:28.141Z,7.07
2023-09-07T04:54:30.008Z,7.63
2023-09-07T04:58:32.336Z,7.07
2023-09-07T05:02:39.860Z,7.22
2023-09-07T05:06:44.756Z,7.28
2023-09-07T05:10:47.308Z,7.57
2023-09-07T05:14:49.215Z,7.45
2023-09-07T05:18:51.228Z,7.47
2023-09-07T05:22:54.590Z,7.85
2023-09-07T05:26:56.609Z,7.85
2023-09-07T05:30:58.607Z,7.28
2023-09-07T05:35:00.677Z,6.80
2023-09-07T05:39:04.203Z,7.35
2023-09-07T05:43:07.234Z,7.47
2023-09-07T05:47:09.864Z,7.30
2023-09-07T05:51:11.853Z,7.35
2023-09-07T05:55:13.730Z,7.75
2023-09-07T05:59:15.667Z,7.43
2023-09-07T06:03:18.018Z,7.18
2023-09-07T06:07:20.783Z,7.07
2023-09-07T06:11:22.775Z,6.47
2023-09-07T06:15:25.151Z,6.63
2023-09-07T06:19:27.154Z,6.97
2023-09-07T06:23:29.070Z,6.97
2023-09-07T06:27:31.181Z,6.60
2023-09-07T06:31:33.224Z,7.85
2023-09-07T06:35:35.444Z,7.00
2023-09-07T06:39:37.447Z,7.13
2023-09-07T06:43:39.615Z,6.45
2023-09-07T06:47:43.261Z,7.93
2023-09-07T06:51:46.661Z,6.95
2023-09-07T06:55:48.568Z,7.07
2023-09-07T06:59:50.589Z,6.97
2023-09-07T07:03:52.774Z,7.00
2023-09-07T07:07:55.438Z,6.90
2023-09-07T07:11:57.804Z,6.75
2023-09-07T07:15:59.772Z,7.18
2023-09-07T07:20:01.779Z,7.38
2023-09-07T07:24:08.054Z,6.38
2023-09-07T07:28:11.052Z,7.20
2023-09-07T07:32:13.632Z,6.07
2023-09-07T07:36:15.729Z,5.82
2023-09-07T07:40:21.730Z,6.72
2023-09-07T07:44:23.997Z,6.53
2023-09-07T07:48:26.394Z,7.32
2023-09-07T07:52:28.967Z,7.60
2023-09-07T07:56:33.381Z,6.95
2023-09-07T08:00:37.104Z,6.40
2023-09-07T08:04:39.566Z,6.68
2023-09-07T08:08:42.084Z,6.47
2023-09-07T08:12:45.715Z,7.47
2023-09-07T08:20:49.783Z,6.72
2023-09-07T08:24:52.542Z,5.63
2023-09-07T08:28:54.911Z,5.35
2023-09-07T08:32:57.007Z,5.13
2023-09-07T08:37:00.501Z,5.60
2023-09-07T08:41:06.969Z,5.88
2023-09-07T08:45:10.303Z,5.80
2023-09-07T08:49:12.927Z,5.30
2023-09-07T08:53:14.830Z,6.20
2023-09-07T08:57:20.275Z,5.70
2023-09-07T09:01:23.069Z,4.70
2023-09-07T09:05:26.790Z,4.45
2023-09-07T09:09:28.717Z,4.03
2023-09-07T09:13:36.291Z,3.75
2023-09-07T09:17:39.766Z,3.95
2023-09-07T09:21:41.790Z,3.55
2023-09-07T09:25:43.697Z,3.45
2023-09-07T09:29:46.094Z,3.90
2023-09-07T09:33:54.471Z,3.47
2023-09-07T09:37:57.590Z,3.55
2023-09-07T09:42:00.563Z,3.63
2023-09-07T09:46:06.852Z,3.63
2023-09-07T09:50:12.634Z,3.65
2023-09-07T09:54:15.185Z,3.63
2023-09-07T09:58:17.968Z,3.72
2023-09-07T10:02:19.932Z,3.60
2023-09-07T10:06:31.055Z,3.72
2023-09-07T10:10:36.452Z,3.28
2023-09-07T10:14:42.753Z,3.58
2023-09-07T10:18:45.827Z,3.80
2023-09-07T10:22:47.687Z,3.80
2023-09-07T10:26:58.245Z,3.30
2023-09-07T10:31:02.418Z,3.72
2023-09-07T10:35:13.961Z,3.65
2023-09-07T10:39:17.924Z,3.40
2023-09-07T10:43:21.627Z,3.65
2023-09-07T10:47:23.509Z,2.97
2023-09-07T10:51:25.590Z,3.10
2023-09-07T10:55:29.303Z,3.03
2023-09-07T10:59:31.353Z,3.38
2023-09-07T11:03:33.763Z,2.70
2023-09-07T11:07:36.237Z,3.53
2023-09-07T11:11:38.638Z,2.90
2023-09-07T11:15:40.727Z,2.67
2023-09-07T11:19:42.714Z,2.45
2023-09-07T11:23:46.396Z,2.42
2023-09-07T11:27:48.239Z,3.45
2023-09-07T11:31:50.423Z,2.38
2023-09-07T11:35:57.949Z,2.95
2023-09-07T11:44:01.623Z,2.95
2023-09-07T11:48:03.760Z,2.67
2023-09-07T11:52:06.231Z,3.28
2023-09-07T11:56:08.194Z,2.50
2023-09-07T12:00:13.509Z,2.53
2023-09-07T12:04:15.486Z,3.47
2023-09-07T12:08:17.857Z,2.67
2023-09-07T12:12:19.702Z,2.65
2023-09-07T12:16:22.304Z,3.17
2023-09-07T12:20:24.649Z,3.17
2023-09-07T12:24:26.555Z,2.92
2023-09-07T12:28:28.533Z,2.92
2023-09-07T12:32:30.521Z,2.63
2023-09-07T12:36:32.540Z,2.78
2023-09-07T12:40:36.353Z,3.00
2023-09-07T12:44:38.434Z,2.90
2023-09-07T12:48:40.556Z,3.15
2023-09-07T12:52:42.811Z,2.53
2023-09-07T12:56:45.663Z,2.90
2023-09-07T13:00:49.542Z,3.30
2023-09-07T13:04:51.454Z,2.47
2023-09-07T13:08:53.323Z,2.63
2023-09-07T13:12:55.167Z,3.17
2023-09-07T13:16:57.043Z,2.63
2023-09-07T13:21:02.357Z,3.17
2023-09-07T13:25:06.255Z,2.63
2023-09-07T13:29:08.512Z,3.08
2023-09-07T13:33:10.406Z,2.75
2023-09-07T13:37:12.308Z,13.93
2023-09-07T13:41:14.202Z,4.38
2023-09-07T13:45:16.208Z,2.85
2023-09-07T13:49:18.095Z,5.22
2023-09-07T13:53:19.970Z,4.18
2023-09-07T13:57:21.972Z,3.35
2023-09-07T14:01:26.104Z,2.90
2023-09-07T14:05:28.016Z,6.43
2023-09-07T14:09:29.921Z,8.73
2023-09-07T14:13:36.064Z,4.05
2023-09-07T14:17:38.034Z,6.35
2023-09-07T14:21:40.144Z,4.47
2023-09-07T14:25:46.230Z,3.42
2023-09-07T14:29:48.161Z,10.63
2023-09-07T14:33:50.102Z,18.08
2023-09-07T14:37:53.902Z,4.97
2023-09-07T14:41:55.731Z,11.45
2023-09-07T14:45:57.735Z,8.13
2023-09-07T14:50:00.446Z,5.95
2023-09-07T14:54:04.903Z,5.32
2023-09-07T14:58:10.298Z,3.83
2023-09-07T15:02:12.417Z,20.10
2023-09-07T15:06:17.167Z,28.35
2023-09-07T15:10:19.020Z,18.60
2023-09-07T15:14:20.920Z,14.40
2023-09-07T15:18:22.928Z,3.95
2023-09-07T15:22:24.854Z,3.35
2023-09-07T15:26:26.905Z,3.30
2023-09-07T15:30:29.074Z,3.28
2023-09-07T15:34:30.961Z,3.03
2023-09-07T15:38:33.201Z,3.03
2023-09-07T15:42:35.210Z,3.28
2023-09-07T15:46:38.870Z,3.22
2023-09-07T15:50:41.028Z,3.47
2023-09-07T15:54:42.900Z,3.40
2023-09-07T15:58:44.960Z,3.50
2023-09-07T16:02:47.253Z,3.80
2023-09-07T16:06:49.361Z,3.22
2023-09-07T16:10:55.665Z,3.63
2023-09-07T16:14:57.554Z,3.83
2023-09-07T16:18:59.826Z,3.50
2023-09-07T16:23:01.663Z,3.40
2023-09-07T16:27:03.922Z,3.58
2023-09-07T16:31:05.879Z,3.47
2023-09-07T16:35:08.152Z,3.65
2023-09-07T16:39:10.121Z,3.75
2023-09-07T16:43:12.039Z,4.05
2023-09-07T16:47:13.874Z,3.70
2023-09-07T16:51:15.756Z,3.97
2023-09-07T16:55:18.309Z,4.10
2023-09-07T17:03:24.987Z,3.65
2023-09-07T17:07:26.980Z,3.90
2023-09-07T17:11:29.146Z,3.58
2023-09-07T17:15:31.044Z,4.45
2023-09-07T17:19:32.975Z,4.22
2023-09-07T17:23:34.953Z,4.00
2023-09-07T17:27:36.907Z,4.57
2023-09-07T17:31:38.801Z,3.58
2023-09-07T17:35:40.753Z,3.72
2023-09-07T17:39:42.618Z,4.90
2023-09-07T17:43:46.870Z,3.88
2023-09-07T17:47:48.920Z,4.50
2023-09-07T17:51:51.858Z,4.07
2023-09-07T17:55:53.723Z,4.10
2023-09-07T17:59:55.557Z,3.83
2023-09-07T18:03:57.588Z,4.35
2023-09-07T18:08:00.337Z,4.05
2023-09-07T18:12:04.206Z,4.40
2023-09-07T18:16:06.292Z,4.82
2023-09-07T18:20:08.877Z,4.45
2023-09-07T18:24:10.901Z,4.25
2023-09-07T18:28:13.522Z,4.70
2023-09-07T18:32:15.474Z,5.13
2023-09-07T18:36:17.368Z,4.82
2023-09-07T18:40:19.573Z,4.95
2023-09-07T18:44:21.440Z,4.70
2023-09-07T18:48:23.373Z,5.13
2023-09-07T18:52:25.206Z,4.95
2023-09-07T18:56:27.046Z,5.55
2023-09-07T19:00:30.326Z,4.75
2023-09-07T19:04:34.339Z,5.40
2023-09-07T19:08:36.334Z,5.50
2023-09-07T19:12:38.377Z,5.68
2023-09-07T19:16:40.469Z,5.40
2023-09-07T19:20:42.422Z,6.10
2023-09-07T19:24:44.396Z,5.30
2023-09-07T19:28:47.330Z,5.88
2023-09-07T19:32:49.317Z,6.13
2023-09-07T19:36:51.206Z,5.90
2023-09-07T19:40:56.537Z,5.80
2023-09-07T19:44:58.965Z,6.30
2023-09-07T19:49:00.955Z,5.80
2023-09-07T19:53:02.819Z,5.85
2023-09-07T19:57:05.024Z,6.63
2023-09-07T20:01:20.595Z,6.28
2023-09-07T20:05:22.468Z,6.88
2023-09-07T20:09:25.978Z,6.25
2023-09-07T20:13:27.962Z,6.15
2023-09-07T20:17:29.866Z,6.40
2023-09-07T20:21:31.735Z,5.78
2023-09-07T20:25:33.988Z,5.88
2023-09-07T20:29:35.856Z,6.20
2023-09-07T20:33:37.916Z,6.30
2023-09-07T20:37:39.763Z,5.80
2023-09-07T20:41:41.795Z,5.82
2023-09-07T20:45:43.813Z,5.80
2023-09-07T20:49:46.121Z,7.65
2023-09-07T20:53:48.016Z,5.65
2023-09-07T20:57:51.846Z,5.65
2023-09-07T21:01:53.701Z,5.63
2023-09-07T21:05:55.725Z,5.20
2023-09-07T21:09:57.684Z,5.55
2023-09-07T21:13:59.732Z,5.35
2023-09-07T21:18:01.891Z,5.38
2023-09-07T21:22:04.361Z,6.10
2023-09-07T21:26:06.578Z,5.82
2023-09-07T21:30:09.942Z,5.70
2023-09-07T21:34:11.956Z,5.95
2023-09-07T21:38:13.926Z,5.95
2023-09-07T21:42:15.898Z,5.90
2023-09-07T21:46:17.893Z,6.03
2023-09-07T21:50:19.949Z,5.93
2023-09-07T21:54:21.873Z,6.13
2023-09-07T21:58:23.794Z,6.25
2023-09-07T22:02:26.085Z,6.18
2023-09-07T22:06:28.842Z,6.32
2023-09-07T22:10:30.822Z,5.82
2023-09-07T22:14:34.324Z,6.15
2023-09-07T22:18:39.312Z,6.03
2023-09-07T22:22:41.269Z,5.53
2023-09-07T22:26:43.252Z,6.35
2023-09-07T22:30:45.358Z,6.20
2023-09-07T22:34:47.305Z,6.60
2023-09-07T22:38:49.214Z,5.57
2023-09-07T22:42:51.180Z,5.82
2023-09-07T22:46:53.049Z,5.32
2023-09-07T22:50:55.021Z,6.45
2023-09-07T22:55:11.088Z,5.78
2023-09-07T22:59:13.287Z,6.28
2023-09-07T23:03:16.124Z,6.07
2023-09-07T23:07:18.035Z,6.63
2023-09-07T23:11:19.926Z,5.78
2023-09-07T23:15:22.031Z,5.95
2023-09-07T23:19:23.941Z,5.70
2023-09-07T23:23:28.587Z,6.68
2023-09-07T23:27:31.104Z,7.00
2023-09-07T23:31:33.099Z,6.90
2023-09-07T23:35:35.150Z,6.55
2023-09-07T23:39:37.571Z,7.35
2023-09-07T23:43:39.694Z,7.15
2023-09-07T23:47:41.882Z,7.07
2023-09-07T23:51:43.881Z,8.18
2023-09-07T23:55:47.681Z,7.60
2023-09-07T23:59:52.335Z,7.88
